Time;durP1;ratioP1;P1;durP2;ratioP2;P2;SDS_P1;SDS_P2;PMS_P1;PMS_P2;Temp;Humidity;BMP_temperature;BMP_pressure;BME280_temperature;BME280_humidity;BME280_pressure;Samples;Min_cycle;Max_cycle;Signal;HPM_P1;HPM_P2
2020/12/24 00:01:19;;;;;;;;;;;;;;;19.49;63.82;101181.75;5065741;28;1980;-50
2020/12/24 00:03:46;;;;;;;;;;;;;;;19.47;63.52;101189.06;5068813;28;1796;-50
2020/12/24 00:06:11;;;;;;;;;;;;;;;19.48;63.50;101188.94;5068889;28;1493;-51
2020/12/24 00:08:38;;;;;;;;;;;;;;;19.48;63.41;101190.78;5044673;28;1552;-51
2020/12/24 00:11:08;;;;;;;;;;;;;;;19.50;63.22;101186.16;5063155;28;1531;-51
2020/12/24 00:13:38;;;;;;;;;;;;;;;19.52;64.50;101186.88;5064760;28;1520;-49
2020/12/24 00:16:05;;;;;;;;;;;;;;;19.54;65.99;101200.16;5071209;28;1521;-50
2020/12/24 00:18:39;;;;;;;;;;;;;;;19.59;65.68;101188.03;5062171;28;1536;-51
2020/12/24 00:21:07;;;;;;;;;;;;;;;19.63;66.09;101199.38;5078501;28;1955;-50
2020/12/24 00:23:37;;;;;;;;;;;;;;;19.65;66.05;101208.13;5061629;28;1478;-50
2020/12/24 00:26:04;;;;;;;;;;;;;;;19.65;65.94;101202.78;5074280;28;1707;-50
2020/12/24 00:28:30;;;;;;;;;;;;;;;19.63;65.80;101208.25;5056328;28;1921;-50
2020/12/24 00:30:55;;;;;;;;;;;;;;;19.59;65.50;101193.41;5064476;28;1479;-50
2020/12/24 00:33:21;;;;;;;;;;;;;;;19.62;65.24;101195.00;5068249;28;1390;-50
2020/12/24 00:35:46;;;;;;;;;;;;;;;19.59;65.16;101204.13;5071211;28;1474;-50
2020/12/24 00:38:13;;;;;;;;;;;;;;;19.61;64.77;101207.53;5060527;28;1858;-50
2020/12/24 00:40:38;;;;;;;;;;;;;;;19.60;65.01;101199.66;5066236;28;1878;-51
2020/12/24 00:43:04;;;;;;;;;;;;;;;19.62;64.92;101187.78;5068560;28;1660;-51
2020/12/24 00:45:31;;;;;;;;;;;;;;;19.58;64.46;101193.56;5065884;28;1410;-51
2020/12/24 00:47:56;;;;;;;;;;;;;;;19.61;64.55;101196.81;5075181;28;1143;-51
2020/12/24 00:50:21;;;;;;;;;;;;;;;19.58;64.72;101201.59;5068929;28;1797;-51
2020/12/24 00:52:49;;;;;;;;;;;;;;;19.54;64.41;101194.78;5061795;28;1650;-51
2020/12/24 00:55:16;;;;;;;;;;;;;;;19.55;64.06;101204.53;5063428;28;1446;-51
2020/12/24 00:57:42;;;;;;;;;;;;;;;19.52;63.98;101202.09;5066652;28;2064;-50
2020/12/24 01:03:10;;;;;;;;;;;;;;;19.51;63.84;101195.03;5074206;28;1332;-51
2020/12/24 01:05:35;;;;;;;;;;;;;;;19.54;63.89;101205.53;5075624;28;817;-51
2020/12/24 01:08:02;;;;;;;;;;;;;;;19.53;63.80;101203.81;5074776;28;1564;-51
2020/12/24 01:10:27;;;;;;;;;;;;;;;19.49;63.40;101189.78;5071906;28;1648;-50
2020/12/24 01:12:52;;;;;;;;;;;;;;;19.49;63.49;101192.47;5074665;28;1492;-51
2020/12/24 01:15:19;;;;;;;;;;;;;;;19.48;63.43;101186.28;5074602;28;1480;-50
2020/12/24 01:17:45;;;;;;;;;;;;;;;19.49;63.21;101173.69;5074920;28;1671;-50
2020/12/24 01:20:11;;;;;;;;;;;;;;;19.49;63.39;101192.47;5056829;28;1588;-52
2020/12/24 01:22:38;;;;;;;;;;;;;;;19.50;62.86;101182.59;5056075;28;1894;-51
2020/12/24 01:25:06;;;;;;;;;;;;;;;19.51;63.08;101181.63;5056871;28;1577;-50
2020/12/24 01:27:32;;;;;;;;;;;;;;;19.48;62.81;101170.19;5074217;28;1750;-51
2020/12/24 01:29:57;;;;;;;;;;;;;;;19.51;62.76;101169.06;5056788;28;1643;-50
2020/12/24 01:32:24;;;;;;;;;;;;;;;19.50;62.37;101156.66;5074801;28;984;-50
2020/12/24 01:34:49;;;;;;;;;;;;;;;19.53;62.43;101160.88;5073989;28;1532;-50
2020/12/24 01:37:14;;;;;;;;;;;;;;;19.50;62.25;101171.88;5074695;28;1606;-50
2020/12/24 01:39:39;;;;;;;;;;;;;;;19.51;62.67;101170.91;5074550;28;1331;-50
2020/12/24 01:42:05;;;;;;;;;;;;;;;19.46;62.15;101150.69;5073523;28;1965;-50
2020/12/24 01:44:31;;;;;;;;;;;;;;;19.48;61.96;101147.88;5056749;28;1392;-51
2020/12/24 01:46:58;;;;;;;;;;;;;;;19.47;62.03;101138.09;5074797;28;1628;-50
2020/12/24 01:49:24;;;;;;;;;;;;;;;19.48;61.86;101143.34;5074312;28;1472;-51
2020/12/24 01:52:00;;;;;;;;;;;;;;;19.52;62.06;101143.06;5074769;28;1674;-50
2020/12/24 01:54:27;;;;;;;;;;;;;;;19.48;61.57;101142.50;5048642;28;1560;-50
2020/12/24 01:56:53;;;;;;;;;;;;;;;19.48;61.66;101143.34;5038140;28;1656;-51
2020/12/24 01:59:18;;;;;;;;;;;;;;;19.47;61.45;101138.94;5056276;28;1493;-51
2020/12/24 02:01:56;;;;;;;;;;;;;;;19.44;61.72;101133.03;5053610;28;1913;-50
2020/12/24 02:04:30;;;;;;;;;;;;;;;19.45;62.21;101140.91;5053984;28;1567;-50
2020/12/24 02:06:55;;;;;;;;;;;;;;;19.47;62.16;101135.44;5054123;28;865;-50
2020/12/24 02:09:21;;;;;;;;;;;;;;;19.53;62.88;101142.13;5047443;28;1508;-50
2020/12/24 02:11:46;;;;;;;;;;;;;;;19.49;62.72;101122.75;5033415;28;1094;-50
2020/12/24 02:14:13;;;;;;;;;;;;;;;19.47;62.80;101122.03;5042919;28;1653;-51
2020/12/24 02:16:40;;;;;;;;;;;;;;;19.46;62.37;101115.81;5053767;28;1493;-50
2020/12/24 02:19:07;;;;;;;;;;;;;;;19.50;62.88;101139.69;5054297;28;935;-50
2020/12/24 02:21:35;;;;;;;;;;;;;;;19.50;63.60;101123.59;5056239;28;1885;-51
2020/12/24 02:24:00;;;;;;;;;;;;;;;19.53;63.86;101123.34;5053633;28;1505;-54
2020/12/24 02:26:26;;;;;;;;;;;;;;;19.53;63.58;101120.66;5053837;28;949;-53
2020/12/24 02:28:51;;;;;;;;;;;;;;;19.53;63.98;101115.28;5054018;28;936;-54
2020/12/24 02:31:17;;;;;;;;;;;;;;;19.48;63.55;101113.84;5051458;28;1559;-52
2020/12/24 02:33:42;;;;;;;;;;;;;;;19.55;63.57;101121.38;5053610;28;1509;-51
2020/12/24 02:36:07;;;;;;;;;;;;;;;19.52;63.15;101116.25;5053417;28;1664;-51
2020/12/24 02:38:32;;;;;;;;;;;;;;;19.55;62.70;101121.38;5053297;28;876;-51
2020/12/24 02:40:58;;;;;;;;;;;;;;;19.52;62.80;101106.41;5051564;28;1951;-51
2020/12/24 02:43:23;;;;;;;;;;;;;;;19.55;62.37;101110.66;5058134;28;1560;-51
2020/12/24 02:45:49;;;;;;;;;;;;;;;19.51;63.00;101106.53;5061196;28;11779;-52
2020/12/24 02:48:14;;;;;;;;;;;;;;;19.54;62.26;101112.47;5062372;28;1310;-51
2020/12/24 02:50:39;;;;;;;;;;;;;;;19.54;62.07;101125.06;5055800;28;1559;-52
2020/12/24 02:53:04;;;;;;;;;;;;;;;19.52;62.01;101121.63;5062862;28;1013;-51
2020/12/24 02:55:30;;;;;;;;;;;;;;;19.51;61.80;101130.66;5056412;28;1602;-51
2020/12/24 02:57:55;;;;;;;;;;;;;;;19.48;61.75;101121.91;5053823;28;1520;-51
2020/12/24 03:00:20;;;;;;;;;;;;;;;19.47;61.57;101128.22;5063576;28;1655;-51
2020/12/24 03:02:45;;;;;;;;;;;;;;;19.48;61.55;101129.94;5073284;28;1910;-52
2020/12/24 03:05:11;;;;;;;;;;;;;;;19.48;61.54;101123.72;5063924;28;1756;-52
2020/12/24 03:07:36;;;;;;;;;;;;;;;19.47;61.33;101117.50;5054222;28;1443;-52
2020/12/24 03:10:01;;;;;;;;;;;;;;;19.46;61.33;101125.69;5053407;28;1350;-51
2020/12/24 03:12:27;;;;;;;;;;;;;;;19.43;61.29;101140.19;5051972;28;917;-51
2020/12/24 03:14:52;;;;;;;;;;;;;;;19.42;61.26;101132.31;5053095;28;996;-52
2020/12/24 03:17:18;;;;;;;;;;;;;;;19.42;61.12;101130.47;5053068;28;917;-52
2020/12/24 03:19:43;;;;;;;;;;;;;;;19.39;61.08;101129.88;5053463;28;806;-52
2020/12/24 03:22:08;;;;;;;;;;;;;;;19.39;61.00;101130.72;5051474;28;1882;-53
2020/12/24 03:24:34;;;;;;;;;;;;;;;19.37;60.90;101123.78;5053336;28;940;-52
2020/12/24 03:26:59;;;;;;;;;;;;;;;19.43;61.05;101128.63;5053659;28;810;-50
2020/12/24 03:29:24;;;;;;;;;;;;;;;19.42;60.95;101143.88;5053315;28;833;-51
2020/12/24 03:31:49;;;;;;;;;;;;;;;19.38;60.94;101141.59;5053321;28;794;-51
2020/12/24 03:34:14;;;;;;;;;;;;;;;19.38;60.60;101129.03;5053305;28;862;-51
2020/12/24 03:36:40;;;;;;;;;;;;;;;19.36;60.48;101106.84;5053070;28;813;-51
2020/12/24 03:39:05;;;;;;;;;;;;;;;19.37;60.63;101127.31;5051318;28;1523;-51
2020/12/24 03:41:30;;;;;;;;;;;;;;;19.37;60.64;101139.88;5052827;28;1961;-51
2020/12/24 03:43:55;;;;;;;;;;;;;;;19.38;60.34;101142.44;5053199;28;869;-52
2020/12/24 03:46:21;;;;;;;;;;;;;;;19.36;60.46;101149.75;5053245;28;806;-52
2020/12/24 03:48:46;;;;;;;;;;;;;;;19.38;60.34;101150.47;5053144;28;805;-50
2020/12/24 03:51:11;;;;;;;;;;;;;;;19.35;60.34;101150.72;5055368;28;948;-51
2020/12/24 03:53:36;;;;;;;;;;;;;;;19.37;60.31;101148.75;5070488;28;1353;-52
2020/12/24 03:56:02;;;;;;;;;;;;;;;19.39;60.09;101146.78;5076628;28;995;-52
2020/12/24 03:58:27;;;;;;;;;;;;;;;19.39;60.10;101144.13;5076808;28;1353;-52
2020/12/24 04:00:53;;;;;;;;;;;;;;;19.39;59.95;101149.47;5076812;28;1914;-52
2020/12/24 04:03:18;;;;;;;;;;;;;;;19.41;60.00;101147.53;5076667;28;778;-51
2020/12/24 04:05:43;;;;;;;;;;;;;;;19.41;59.52;101142.16;5075747;28;1325;-51
2020/12/24 04:08:09;;;;;;;;;;;;;;;19.41;59.58;101142.16;5076299;28;1278;-52
2020/12/24 04:10:34;;;;;;;;;;;;;;;19.43;59.54;101155.44;5056574;28;860;-51
2020/12/24 04:12:59;;;;;;;;;;;;;;;19.40;59.80;101147.66;5065473;28;1327;-51
2020/12/24 04:15:25;;;;;;;;;;;;;;;19.35;59.82;101131.94;5075957;28;1504;-51
2020/12/24 04:17:50;;;;;;;;;;;;;;;19.42;60.38;101148.41;5076179;28;1575;-51
2020/12/24 04:20:15;;;;;;;;;;;;;;;19.14;62.99;101144.47;5076520;28;1440;-51
2020/12/24 04:22:40;;;;;;;;;;;;;;;18.98;63.53;101153.78;5076051;28;1960;-51
2020/12/24 04:25:06;;;;;;;;;;;;;;;18.92;64.45;101148.94;5075116;28;1483;-52
2020/12/24 04:27:31;;;;;;;;;;;;;;;18.87;64.64;101143.09;5074950;28;1286;-51
2020/12/24 04:29:56;;;;;;;;;;;;;;;18.80;64.43;101128.47;5075644;28;1364;-52
2020/12/24 04:32:21;;;;;;;;;;;;;;;18.80;64.93;101141.88;5075008;28;1512;-51
2020/12/24 04:34:47;;;;;;;;;;;;;;;18.77;64.96;101142.09;5075207;28;1346;-51
2020/12/24 04:37:12;;;;;;;;;;;;;;;18.72;64.86;101139.81;5076244;28;1523;-52
2020/12/24 04:39:37;;;;;;;;;;;;;;;18.67;65.05;101132.13;5075581;28;1460;-51
2020/12/24 04:42:03;;;;;;;;;;;;;;;18.66;65.26;101130.44;5075568;28;1894;-51
2020/12/24 04:44:30;;;;;;;;;;;;;;;18.69;65.17;101135.53;5075730;28;1516;-52
2020/12/24 04:46:55;;;;;;;;;;;;;;;18.64;65.80;101132.41;5075950;28;1722;-51
2020/12/24 04:49:23;;;;;;;;;;;;;;;18.62;66.65;101136.16;5074908;28;1571;-51
2020/12/24 04:51:49;;;;;;;;;;;;;;;18.63;65.84;101137.88;5075889;28;850;-51
2020/12/24 04:54:14;;;;;;;;;;;;;;;18.64;65.68;101145.78;5074265;28;1408;-51
2020/12/24 04:56:40;;;;;;;;;;;;;;;18.60;66.32;101141.66;5074893;28;1489;-52
2020/12/24 04:59:06;;;;;;;;;;;;;;;18.60;66.36;101147.00;5075346;28;1345;-51
2020/12/24 05:01:31;;;;;;;;;;;;;;;18.58;66.23;101145.41;5072126;28;1914;-52
2020/12/24 05:03:57;;;;;;;;;;;;;;;18.59;66.86;101145.28;5074654;28;1265;-51
2020/12/24 05:06:22;;;;;;;;;;;;;;;18.61;66.17;101153.22;5073042;28;1400;-52
2020/12/24 05:08:54;;;;;;;;;;;;;;;18.56;65.77;101142.88;5075420;28;1320;-51
2020/12/24 05:11:30;;;;;;;;;;;;;;;18.61;66.43;101139.81;5075667;28;884;-51
2020/12/24 05:13:56;;;;;;;;;;;;;;;18.59;66.40;101141.78;5075270;28;1535;-52
2020/12/24 05:16:21;;;;;;;;;;;;;;;18.61;66.24;101139.81;5075268;28;822;-51
2020/12/24 05:18:47;;;;;;;;;;;;;;;18.60;65.68;101135.41;5074965;28;1798;-52
2020/12/24 05:21:28;;;;;;;;;;;;;;;18.61;65.78;101151.38;5075021;28;1890;-51
2020/12/24 05:23:53;;;;;;;;;;;;;;;18.62;66.14;101137.03;5068497;28;1726;-52
2020/12/24 05:26:21;;;;;;;;;;;;;;;18.58;65.99;101140.06;5061497;28;867;-52
2020/12/24 05:28:47;;;;;;;;;;;;;;;18.59;66.09;101150.66;5055097;28;951;-52
2020/12/24 05:31:29;;;;;;;;;;;;;;;18.62;65.98;101147.75;5054882;28;793;-52
2020/12/24 05:33:55;;;;;;;;;;;;;;;18.59;66.43;101139.94;5075063;28;1638;-51
2020/12/24 05:36:21;;;;;;;;;;;;;;;18.57;66.67;101141.88;5074349;28;1747;-52
2020/12/24 05:38:47;;;;;;;;;;;;;;;18.57;66.10;101135.69;5074852;28;797;-52
2020/12/24 05:41:31;;;;;;;;;;;;;;;18.54;66.41;101142.13;5074273;28;1961;-52
2020/12/24 05:43:57;;;;;;;;;;;;;;;18.54;66.25;101141.28;5074794;28;797;-51
2020/12/24 05:46:23;;;;;;;;;;;;;;;18.54;66.74;101138.59;5074340;28;1630;-51
2020/12/24 05:48:48;;;;;;;;;;;;;;;18.53;67.05;101140.44;5060879;28;1688;-51
2020/12/24 05:51:18;;;;;;;;;;;;;;;18.56;67.08;101134.84;5072913;28;1084;-51
2020/12/24 05:53:44;;;;;;;;;;;;;;;18.54;66.93;101134.09;5062063;28;1349;-52
2020/12/24 05:56:18;;;;;;;;;;;;;;;18.53;66.72;101139.59;5059486;28;1492;-52
2020/12/24 05:58:45;;;;;;;;;;;;;;;18.55;67.10;101138.47;5073782;28;995;-52
2020/12/24 06:01:12;;;;;;;;;;;;;;;18.55;66.87;101132.28;5074292;28;1914;-51
2020/12/24 06:03:44;;;;;;;;;;;;;;;18.50;66.68;101129.94;5073619;28;825;-52
2020/12/24 06:06:12;;;;;;;;;;;;;;;18.56;66.52;101136.66;5072786;28;1516;-52
2020/12/24 06:08:45;;;;;;;;;;;;;;;18.53;66.32;101140.44;5074232;28;1361;-52
2020/12/24 06:11:13;;;;;;;;;;;;;;;18.50;66.49;101124.59;5072755;28;1532;-51
2020/12/24 06:13:48;;;;;;;;;;;;;;;18.51;66.77;101145.06;5070993;28;1303;-52
2020/12/24 06:16:15;;;;;;;;;;;;;;;18.52;66.65;101121.81;5069326;28;1457;-51
2020/12/24 06:18:42;;;;;;;;;;;;;;;18.50;67.01;101124.59;5055095;28;1346;-52
2020/12/24 06:21:12;;;;;;;;;;;;;;;18.50;66.68;101113.88;5073266;28;1910;-51
2020/12/24 06:23:38;;;;;;;;;;;;;;;18.48;66.39;101123.88;5071522;28;1344;-52
2020/12/24 06:26:05;;;;;;;;;;;;;;;18.50;66.50;101119.25;5073046;28;1308;-52
2020/12/24 06:28:33;;;;;;;;;;;;;;;18.50;67.07;101121.91;5073130;28;1278;-52
2020/12/24 06:30:59;;;;;;;;;;;;;;;18.51;65.98;101128.16;5072943;28;1250;-52
2020/12/24 06:33:28;;;;;;;;;;;;;;;18.52;66.96;101124.47;5072963;28;1226;-52
2020/12/24 06:35:54;;;;;;;;;;;;;;;18.51;66.74;101114.75;5072246;28;1503;-52
2020/12/24 06:38:41;;;;;;;;;;;;;;;18.53;66.18;101119.00;5070042;28;1344;-52
2020/12/24 06:41:27;;;;;;;;;;;;;;;18.55;66.09;101122.41;5071448;28;1941;-51
2020/12/24 06:43:53;;;;;;;;;;;;;;;18.55;66.66;101119.72;5053359;28;1419;-52
2020/12/24 06:46:19;;;;;;;;;;;;;;;18.57;66.73;101120.47;5068042;28;1346;-51
2020/12/24 06:49:14;;;;;;;;;;;;;;;18.58;66.93;101110.59;5073848;28;858;-51
2020/12/24 06:51:46;;;;;;;;;;;;;;;18.52;66.72;101106.56;5057074;28;2234;-52
2020/12/24 06:54:23;;;;;;;;;;;;;;;18.46;65.52;101105.28;5062104;28;3123;-52
2020/12/24 06:56:48;;;;;;;;;;;;;;;18.33;67.05;101093.00;5057571;28;1570;-52
2020/12/24 06:59:21;;;;;;;;;;;;;;;18.28;66.83;101087.97;5063756;28;1860;-51
2020/12/24 07:01:59;;;;;;;;;;;;;;;18.34;63.30;101084.81;5059471;28;1985;-52
2020/12/24 07:04:34;;;;;;;;;;;;;;;18.65;63.76;101080.50;5056987;28;1507;-51
2020/12/24 07:07:00;;;;;;;;;;;;;;;18.92;61.87;101081.94;5057500;28;1622;-51
2020/12/24 07:09:25;;;;;;;;;;;;;;;19.11;61.11;101075.03;5051609;28;11099;-52
2020/12/24 07:11:52;;;;;;;;;;;;;;;19.32;61.30;101078.59;5061104;28;1865;-51
2020/12/24 07:14:44;;;;;;;;;;;;;;;19.36;61.04;101096.13;5064307;28;1851;-51
2020/12/24 07:17:09;;;;;;;;;;;;;;;19.42;59.98;101075.97;5059323;28;1959;-51
2020/12/24 07:19:36;;;;;;;;;;;;;;;19.48;60.32;101068.25;5054459;28;1351;-52
2020/12/24 07:22:04;;;;;;;;;;;;;;;19.45;59.92;101079.22;5061911;28;1894;-51
2020/12/24 07:24:30;;;;;;;;;;;;;;;19.41;60.04;101087.69;5072349;28;1249;-51
2020/12/24 07:26:59;;;;;;;;;;;;;;;19.34;60.07;101065.03;5067210;28;1574;-51
2020/12/24 07:29:25;;;;;;;;;;;;;;;19.32;59.80;101081.28;5073724;28;1604;-52
2020/12/24 07:31:51;;;;;;;;;;;;;;;19.35;59.52;101085.53;5070592;28;1567;-51
2020/12/24 07:34:26;;;;;;;;;;;;;;;19.27;60.07;101076.28;5073232;28;1769;-51
2020/12/24 07:36:51;;;;;;;;;;;;;;;19.32;59.93;101081.28;5071146;28;1465;-52
2020/12/24 07:39:17;;;;;;;;;;;;;;;19.23;60.36;101069.47;5071289;28;1560;-51
2020/12/24 07:41:42;;;;;;;;;;;;;;;19.37;60.43;101068.31;5071053;28;1941;-51
2020/12/24 07:44:08;;;;;;;;;;;;;;;19.49;60.09;101079.81;5069518;28;1421;-52
2020/12/24 07:46:33;;;;;;;;;;;;;;;19.42;60.43;101068.78;5069106;28;1592;-52
2020/12/24 07:49:01;;;;;;;;;;;;;;;19.39;60.58;101073.53;5069392;28;1454;-52
2020/12/24 07:51:32;;;;;;;;;;;;;;;19.32;60.99;101072.34;5066297;28;1501;-52
2020/12/24 07:54:28;;;;;;;;;;;;;;;19.33;61.10;101085.63;5068984;28;1726;-52
2020/12/24 07:56:53;;;;;;;;;;;;;;;19.32;61.67;101072.34;5069496;28;1578;-52
2020/12/24 07:59:19;;;;;;;;;;;;;;;19.27;62.34;101070.91;5070612;28;1807;-52
2020/12/24 08:01:44;;;;;;;;;;;;;;;19.21;62.16;101089.34;5069096;28;1970;-51
2020/12/24 08:04:10;;;;;;;;;;;;;;;19.32;62.04;101089.31;5067125;28;1591;-52
2020/12/24 08:06:35;;;;;;;;;;;;;;;19.34;62.45;101084.69;5071506;28;1330;-53
2020/12/24 08:09:07;;;;;;;;;;;;;;;19.20;62.40;101083.16;5072472;28;1664;-52
2020/12/24 08:11:33;;;;;;;;;;;;;;;19.11;62.41;101088.44;5064700;28;1957;-51
2020/12/24 08:13:58;;;;;;;;;;;;;;;19.20;62.55;101101.06;5068897;28;1398;-52
2020/12/24 08:16:25;;;;;;;;;;;;;;;19.31;62.97;101103.69;5072154;28;1489;-51
2020/12/24 08:18:57;;;;;;;;;;;;;;;19.38;62.24;101104.03;5068846;28;1441;-52
2020/12/24 08:21:25;;;;;;;;;;;;;;;19.41;62.54;101101.94;5064385;28;1894;-53
2020/12/24 08:23:57;;;;;;;;;;;;;;;19.46;62.73;101102.41;5068251;28;1503;-52
2020/12/24 08:26:22;;;;;;;;;;;;;;;19.44;62.53;101104.38;5054485;28;1588;-52
2020/12/24 08:28:53;;;;;;;;;;;;;;;19.48;61.71;101100.44;5066633;28;1487;-53
2020/12/24 08:31:19;;;;;;;;;;;;;;;19.50;62.62;101088.72;5069937;28;1191;-52
2020/12/24 08:33:47;;;;;;;;;;;;;;;19.63;61.44;101102.78;5068657;28;1390;-53
2020/12/24 08:36:18;;;;;;;;;;;;;;;19.75;61.22;101096.38;5067333;28;1333;-53
2020/12/24 08:38:43;;;;;;;;;;;;;;;19.83;61.65;101096.56;5064272;28;1429;-52
2020/12/24 08:41:18;;;;;;;;;;;;;;;19.93;62.01;101103.84;5067863;28;1885;-53
2020/12/24 08:43:46;;;;;;;;;;;;;;;19.99;61.46;101071.94;5066751;28;1573;-53
2020/12/24 08:46:15;;;;;;;;;;;;;;;20.09;61.08;101077.34;4358371;28;10000871;-53
2020/12/24 08:48:40;;;;;;;;;;;;;;;20.23;61.48;101074.31;5061962;28;2319;-53
2020/12/24 08:51:12;;;;;;;;;;;;;;;20.30;61.81;101082.66;5065499;28;1746;-51
2020/12/24 08:53:38;;;;;;;;;;;;;;;20.15;61.90;101074.13;5063974;28;1573;-52
2020/12/24 08:56:13;;;;;;;;;;;;;;;20.26;62.52;101082.06;5065530;28;1578;-51
2020/12/24 08:58:48;;;;;;;;;;;;;;;20.62;62.95;101074.44;5060253;28;1514;-52
2020/12/24 09:01:14;;;;;;;;;;;;;;;20.59;64.16;101085.47;5064981;28;1914;-52
2020/12/24 09:03:39;;;;;;;;;;;;;;;21.02;59.83;101069.94;5060659;28;2551;-53
2020/12/24 09:06:11;;;;;;;;;;;;;;;20.65;61.83;101070.59;5061119;28;1678;-53
2020/12/24 09:08:37;;;;;;;;;;;;;;;20.39;62.78;101063.06;5061453;28;1506;-54
2020/12/24 09:11:02;;;;;;;;;;;;;;;20.34;63.69;101069.81;5064349;28;1537;-52
2020/12/24 09:13:27;;;;;;;;;;;;;;;20.26;64.01;101060.59;5065598;28;1610;-52
2020/12/24 09:15:52;;;;;;;;;;;;;;;20.18;63.99;101049.69;5061122;28;1649;-52
2020/12/24 09:18:18;;;;;;;;;;;;;;;20.16;64.14;101035.56;5057756;28;1533;-52
2020/12/24 09:20:43;;;;;;;;;;;;;;;20.17;64.04;101045.28;5068198;28;1553;-52
2020/12/24 09:23:13;;;;;;;;;;;;;;;20.22;64.47;101023.41;5065199;28;2000;-52
2020/12/24 09:25:46;;;;;;;;;;;;;;;20.08;64.09;101021.97;5064334;28;1526;-52
2020/12/24 09:28:19;;;;;;;;;;;;;;;20.02;64.24;101011.78;5061798;28;1459;-52
2020/12/24 09:30:44;;;;;;;;;;;;;;;20.08;64.11;101008.53;5065588;28;1253;-52
2020/12/24 09:33:09;;;;;;;;;;;;;;;20.01;64.42;101021.63;5063219;28;1545;-52
2020/12/24 09:35:35;;;;;;;;;;;;;;;19.96;64.60;101015.00;5060872;28;1498;-52
2020/12/24 09:38:00;;;;;;;;;;;;;;;19.85;65.21;101016.78;5059035;28;1511;-53
2020/12/24 09:40:25;;;;;;;;;;;;;;;19.76;63.69;101022.97;5059112;28;1636;-52
2020/12/24 09:42:51;;;;;;;;;;;;;;;19.75;64.48;101012.38;5062908;28;1898;-52
2020/12/24 09:45:16;;;;;;;;;;;;;;;19.69;63.94;101008.34;5063832;28;1510;-52
2020/12/24 09:47:45;;;;;;;;;;;;;;;19.74;63.44;101008.84;5062863;28;1537;-52
2020/12/24 09:50:11;;;;;;;;;;;;;;;19.85;62.63;101000.69;5062972;28;1536;-52
2020/12/24 09:52:36;;;;;;;;;;;;;;;20.00;62.32;101003.00;5058131;28;1433;-52
2020/12/24 09:55:01;;;;;;;;;;;;;;;20.11;63.21;101002.03;5061632;28;1604;-52
2020/12/24 09:57:27;;;;;;;;;;;;;;;20.15;62.08;100990.88;5061316;28;1521;-52
2020/12/24 09:59:52;;;;;;;;;;;;;;;20.25;61.64;100994.47;5058966;28;1529;-53
2020/12/24 10:02:17;;;;;;;;;;;;;;;20.21;62.32;100984.13;5057159;28;1973;-54
2020/12/24 10:04:42;;;;;;;;;;;;;;;20.22;61.98;100983.97;5058321;28;1630;-52
2020/12/24 10:07:09;;;;;;;;;;;;;;;20.25;62.75;100972.97;5057690;28;2396;-52
2020/12/24 10:09:35;;;;;;;;;;;;;;;20.20;63.63;100977.06;5060726;28;1575;-52
2020/12/24 10:12:00;;;;;;;;;;;;;;;20.19;64.09;100969.97;5069639;28;1564;-52
2020/12/24 10:14:25;;;;;;;;;;;;;;;20.24;62.43;100971.25;5065097;28;1726;-51
2020/12/24 10:16:50;;;;;;;;;;;;;;;20.13;62.23;100955.25;5064487;28;1588;-51
2020/12/24 10:19:15;;;;;;;;;;;;;;;20.08;63.56;100954.84;5061784;28;1498;-52
2020/12/24 10:21:41;;;;;;;;;;;;;;;20.07;61.89;100942.41;5057328;28;1886;-53
2020/12/24 10:24:06;;;;;;;;;;;;;;;20.03;62.88;100955.28;5060595;28;1460;-52
2020/12/24 10:26:32;;;;;;;;;;;;;;;19.95;62.76;100935.44;5057096;28;1470;-52
2020/12/24 10:28:57;;;;;;;;;;;;;;;19.86;62.47;100929.94;5061178;28;1450;-52
2020/12/24 10:31:22;;;;;;;;;;;;;;;19.91;62.26;100934.03;5059826;28;1576;-52
2020/12/24 10:33:47;;;;;;;;;;;;;;;19.83;62.14;100932.88;5054353;28;1498;-52
2020/12/24 10:36:18;;;;;;;;;;;;;;;19.60;60.98;100934.91;5063762;28;1486;-52
2020/12/24 10:38:43;;;;;;;;;;;;;;;19.67;62.46;100937.88;5055552;28;1541;-52
2020/12/24 10:41:11;;;;;;;;;;;;;;;19.69;62.51;100930.53;5067590;28;1894;-52
2020/12/24 10:43:36;;;;;;;;;;;;;;;19.75;62.74;100915.78;5052727;28;1690;-51
2020/12/24 10:46:01;;;;;;;;;;;;;;;19.74;62.14;100925.66;5064839;28;1505;-51
2020/12/24 10:48:27;;;;;;;;;;;;;;;19.79;62.81;100922.56;5062013;28;1490;-51
2020/12/24 10:50:54;;;;;;;;;;;;;;;19.82;63.01;100925.81;5064317;28;1262;-52
2020/12/24 10:53:19;;;;;;;;;;;;;;;19.81;63.11;100928.63;5053953;28;1522;-52
2020/12/24 10:55:44;;;;;;;;;;;;;;;19.79;62.99;100919.88;5056922;28;1543;-52
2020/12/24 10:58:09;;;;;;;;;;;;;;;19.80;63.54;100921.59;5049532;28;1592;-53
2020/12/24 11:00:35;;;;;;;;;;;;;;;19.78;63.56;100921.72;5062091;28;1608;-52
2020/12/24 11:03:00;;;;;;;;;;;;;;;19.78;63.73;100910.97;5057646;28;1980;-52
2020/12/24 11:05:26;;;;;;;;;;;;;;;19.78;63.95;100913.66;5054740;28;2399;-53
2020/12/24 11:07:51;;;;;;;;;;;;;;;19.73;64.30;100910.53;5051145;28;1633;-52
2020/12/24 11:10:17;;;;;;;;;;;;;;;19.67;64.67;100906.53;5057319;28;1525;-52
2020/12/24 11:12:42;;;;;;;;;;;;;;;19.61;64.72;100895.50;5057398;28;1755;-53
2020/12/24 11:15:07;;;;;;;;;;;;;;;19.59;65.13;100898.31;5054925;28;1371;-52
2020/12/24 11:17:32;;;;;;;;;;;;;;;19.58;65.38;100902.00;5060029;28;2405;-52
2020/12/24 11:19:58;;;;;;;;;;;;;;;19.58;65.47;100898.47;5058860;28;1541;-53
2020/12/24 11:22:23;;;;;;;;;;;;;;;19.60;65.25;100886.63;5061619;28;1955;-52
2020/12/24 11:24:48;;;;;;;;;;;;;;;19.55;65.24;100891.53;5058966;28;1490;-52
2020/12/24 11:27:13;;;;;;;;;;;;;;;19.50;65.36;100883.06;5059748;28;1522;-51
2020/12/24 11:29:38;;;;;;;;;;;;;;;19.54;64.58;100883.63;5056869;28;1176;-52
2020/12/24 11:32:04;;;;;;;;;;;;;;;19.03;65.22;100874.66;5060586;28;1533;-52
2020/12/24 11:34:29;;;;;;;;;;;;;;;18.75;63.22;100870.81;5058891;28;1463;-54
2020/12/24 11:36:58;;;;;;;;;;;;;;;18.61;63.20;100880.00;5056999;28;1823;-52
2020/12/24 11:39:24;;;;;;;;;;;;;;;18.54;61.46;100871.63;5057275;28;1638;-53
2020/12/24 11:41:49;;;;;;;;;;;;;;;18.56;62.81;100872.38;5061739;28;1905;-52
2020/12/24 11:44:15;;;;;;;;;;;;;;;18.55;60.59;100854.59;5060105;28;1240;-52
2020/12/24 11:46:40;;;;;;;;;;;;;;;18.54;60.89;100858.25;5057084;28;1478;-51
2020/12/24 11:49:05;;;;;;;;;;;;;;;18.79;63.83;100858.84;5059435;28;1735;-52
2020/12/24 11:51:31;;;;;;;;;;;;;;;19.00;63.44;100851.66;5061709;28;1510;-52
2020/12/24 11:53:56;;;;;;;;;;;;;;;19.12;63.55;100832.78;5059662;28;1579;-52
2020/12/24 11:56:22;;;;;;;;;;;;;;;19.19;63.87;100836.63;5061489;28;1633;-53
2020/12/24 11:58:48;;;;;;;;;;;;;;;19.18;63.16;100854.56;5060460;28;1467;-53
2020/12/24 12:01:17;;;;;;;;;;;;;;;19.22;63.46;100833.69;5060679;28;1977;-52
2020/12/24 12:03:43;;;;;;;;;;;;;;;19.25;63.66;100828.06;5057271;28;1592;-52
2020/12/24 12:06:08;;;;;;;;;;;;;;;19.20;63.38;100828.47;5063764;28;1502;-53
2020/12/24 12:08:34;;;;;;;;;;;;;;;19.31;63.34;100834.72;5061390;28;1338;-53
2020/12/24 12:11:03;;;;;;;;;;;;;;;19.26;63.79;100821.72;5052994;28;1620;-51
2020/12/24 12:13:28;;;;;;;;;;;;;;;19.24;63.63;100818.31;5064299;28;1561;-51
2020/12/24 12:15:53;;;;;;;;;;;;;;;19.22;64.41;100821.13;5067247;28;1485;-51
2020/12/24 12:18:19;;;;;;;;;;;;;;;19.20;64.61;100822.22;5060530;28;1056;-51
2020/12/24 12:20:44;;;;;;;;;;;;;;;19.27;64.24;100812.69;5064816;28;1529;-51
2020/12/24 12:23:09;;;;;;;;;;;;;;;19.26;64.88;100821.72;5064062;28;2414;-52
2020/12/24 12:25:34;;;;;;;;;;;;;;;19.31;63.11;100819.47;5060115;28;1620;-52
2020/12/24 12:28:00;;;;;;;;;;;;;;;19.19;64.45;100820.56;5059647;28;1648;-51
2020/12/24 12:30:25;;;;;;;;;;;;;;;19.18;64.56;100814.34;5062172;28;1514;-51
2020/12/24 12:32:50;;;;;;;;;;;;;;;19.22;65.41;100822.97;5063235;28;1645;-51
2020/12/24 12:35:15;;;;;;;;;;;;;;;19.20;65.20;100832.97;5063556;28;1482;-51
2020/12/24 12:37:41;;;;;;;;;;;;;;;19.10;65.61;100816.88;5063857;28;1536;-51
2020/12/24 12:40:07;;;;;;;;;;;;;;;18.81;63.79;100820.25;5065221;28;1508;-51
2020/12/24 12:42:32;;;;;;;;;;;;;;;18.59;65.34;100818.53;5059237;28;1958;-51
2020/12/24 12:44:58;;;;;;;;;;;;;;;18.51;65.90;100820.19;5066643;28;1265;-51
2020/12/24 12:47:23;;;;;;;;;;;;;;;18.48;68.13;100805.19;5065528;28;1494;-51
2020/12/24 12:49:49;;;;;;;;;;;;;;;18.39;67.34;100806.00;5061681;28;1494;-52